createdAt,value
2022-12-26T00:00:30.686Z,11.44
2022-12-26T00:10:38.482Z,10.81
2022-12-26T00:20:46.422Z,10.14
2022-12-26T00:30:54.331Z,11.92
2022-12-26T00:41:03.559Z,11.94
2022-12-26T00:51:11.475Z,14.22
2022-12-26T01:01:19.558Z,13.69
2022-12-26T01:11:27.246Z,10.87
2022-12-26T01:21:35.061Z,12.71
2022-12-26T01:31:45.953Z,10.61
2022-12-26T01:51:47.001Z,9.99
2022-12-26T02:01:55.014Z,8.59
2022-12-26T02:12:33.537Z,8.8
2022-12-26T02:22:08.826Z,8.53
2022-12-26T02:32:16.643Z,8.32
2022-12-26T02:42:24.675Z,9.3
2022-12-26T02:52:32.576Z,8.94
2022-12-26T03:02:40.451Z,8.65
2022-12-26T03:12:49.504Z,10.19
2022-12-26T03:22:57.437Z,9.13
2022-12-26T03:33:05.400Z,7.2
2022-12-26T03:43:13.184Z,6.52
2022-12-26T03:53:22.352Z,8.44
2022-12-26T04:03:30.267Z,8.29
2022-12-26T04:13:38.043Z,7.3
2022-12-26T04:23:46.058Z,7.05
2022-12-26T04:33:53.979Z,6.98
2022-12-26T04:44:02.979Z,10.86
2022-12-26T04:54:11.106Z,8.3
2022-12-26T05:04:20.460Z,6.82
2022-12-26T05:14:29.067Z,7.05
2022-12-26T05:24:37.040Z,6.76
2022-12-26T05:34:44.837Z,6.19
2022-12-26T05:44:52.728Z,6.68
2022-12-26T06:04:57.259Z,7.44
2022-12-26T06:15:03.580Z,6.6
2022-12-26T06:25:11.493Z,6.4
2022-12-26T06:35:19.434Z,7.58
2022-12-26T06:45:27.339Z,6.68
2022-12-26T06:55:35.132Z,6.7
2022-12-26T07:05:42.957Z,9.55
2022-12-26T07:15:50.793Z,7.09
2022-12-26T07:25:58.754Z,7.49
2022-12-26T07:36:06.711Z,6.56
2022-12-26T07:46:14.777Z,6.85
2022-12-26T07:56:22.663Z,8.09
2022-12-26T08:06:36.065Z,9.35
2022-12-26T08:26:35.684Z,7.33
2022-12-26T08:36:46.287Z,8.14
2022-12-26T08:46:47.169Z,8.15
2022-12-26T08:56:45.109Z,12.31
2022-12-26T09:06:53.601Z,11.92
2022-12-26T09:17:03.735Z,10.58
2022-12-26T09:27:01.688Z,10.4
2022-12-26T09:37:09.757Z,10.45
2022-12-26T09:47:17.776Z,9.54
2022-12-26T09:57:25.756Z,11.89
2022-12-26T10:07:33.676Z,17.82
2022-12-26T10:17:42.861Z,11.46
2022-12-26T10:27:48.974Z,8.21
2022-12-26T10:37:46.978Z,8.16
2022-12-26T10:47:54.989Z,6.56
2022-12-26T10:58:02.953Z,7.87
2022-12-26T11:08:10.899Z,8.76
2022-12-26T11:18:18.266Z,7.82
2022-12-26T11:28:26.216Z,8.17
2022-12-26T11:38:42.707Z,9.49
2022-12-26T11:48:34.973Z,11.72
2022-12-26T11:58:58.192Z,11.96
2022-12-26T12:09:00.891Z,9.75
2022-12-26T12:19:08.439Z,9.9
2022-12-26T12:29:00.066Z,12.91
2022-12-26T12:38:59.611Z,30.82
2022-12-26T12:49:07.583Z,17.84
2022-12-26T12:59:15.402Z,10.95
2022-12-26T13:09:23.472Z,9.44
2022-12-26T13:19:32.582Z,8.01
2022-12-26T13:29:42.094Z,9.45
2022-12-26T13:39:50.363Z,11.44
2022-12-26T13:49:58.538Z,12.03
2022-12-26T14:00:06.472Z,14.09
2022-12-26T14:10:14.421Z,15.28
2022-12-26T14:20:22.690Z,14.85
2022-12-26T14:30:32.742Z,12.37
2022-12-26T14:40:31.832Z,13.02
2022-12-26T14:50:30.927Z,15.18
2022-12-26T15:00:38.714Z,12.11
2022-12-26T15:10:46.572Z,14.5
2022-12-26T15:20:54.430Z,13.6
2022-12-26T15:31:02.684Z,12.42
2022-12-26T15:41:13.371Z,13.09
2022-12-26T15:51:14.292Z,12.46
2022-12-26T16:01:43.746Z,13.18
2022-12-26T16:11:30.358Z,17.45
2022-12-26T16:21:38.377Z,15.08
2022-12-26T16:31:48.409Z,13.93
2022-12-26T16:41:46.329Z,17.46
2022-12-26T16:51:54.228Z,20.52
2022-12-26T17:02:02.276Z,21.87
2022-12-26T17:12:10.421Z,28.05
2022-12-26T17:22:18.841Z,22.74
2022-12-26T17:32:27.203Z,19.9
2022-12-26T17:42:35.263Z,25.48
2022-12-26T17:52:45.507Z,33.99
2022-12-26T18:02:53.223Z,37.43
2022-12-26T18:12:53.732Z,36.92
2022-12-26T18:22:57.038Z,39.1
2022-12-26T18:32:55.426Z,33.35
2022-12-26T18:43:07.566Z,30.84
2022-12-26T18:53:06.387Z,25.17
2022-12-26T19:03:17.115Z,25.18
2022-12-26T19:13:21.411Z,21.68
2022-12-26T19:23:20.822Z,20.75
2022-12-26T19:33:29.239Z,22.44
2022-12-26T19:53:49.928Z,23.3
2022-12-26T20:03:57.431Z,22.52
2022-12-26T20:14:23.877Z,25.5
2022-12-26T20:24:16.795Z,26.81
2022-12-26T20:34:12.203Z,32.6
2022-12-26T20:44:13.079Z,21.2
2022-12-26T20:54:11.731Z,27.91
2022-12-26T21:04:23.441Z,24.27
2022-12-26T21:14:22.884Z,21.73
2022-12-26T21:24:24.758Z,30.15
2022-12-26T21:34:34.635Z,23.25
2022-12-26T21:44:43.533Z,32.83
2022-12-26T21:54:51.254Z,18.41
2022-12-26T22:05:03.264Z,25.12
2022-12-26T22:15:01.531Z,38
2022-12-26T22:25:09.746Z,20.13
2022-12-26T22:35:18.859Z,22.97
2022-12-26T22:45:29.199Z,23.96
2022-12-26T22:55:42.384Z,23.04
2022-12-26T23:05:51.271Z,22.54
2022-12-26T23:16:04.045Z,46.44
2022-12-26T23:25:54.273Z,29.29
2022-12-26T23:36:07.813Z,25.36
2022-12-26T23:56:05.291Z,24.13
